Time;durP1;ratioP1;P1;durP2;ratioP2;P2;SDS_P1;SDS_P2;PMS_P1;PMS_P2;Temp;Humidity;BMP_temperature;BMP_pressure;BME280_temperature;BME280_humidity;BME280_pressure;Samples;Min_cycle;Max_cycle;Signal;HPM_P1;HPM_P2
2022/08/24 00:00:00;;;;;;;;;4.00;4.00;;;;;23.85;62.97;101404.13;5091776;27;50037;-77
2022/08/24 00:02:26;;;;;;;;;4.75;4.75;;;;;24.03;63.36;101434.97;5091707;27;49826;-72
2022/08/24 00:04:53;;;;;;;;;4.75;4.75;;;;;24.06;63.66;101448.31;5091501;27;49814;-70
2022/08/24 00:07:19;;;;;;;;;2.25;2.00;;;;;23.88;63.58;101426.38;5091248;27;49870;-76
2022/08/24 00:09:46;;;;;;;;;4.00;4.00;;;;;24.01;63.88;101450.22;5092625;27;49719;-67
2022/08/24 00:12:12;;;;;;;;;3.25;3.00;;;;;23.67;63.94;101400.06;5091030;27;49610;-67
2022/08/24 00:14:38;;;;;;;;;4.25;3.00;;;;;23.96;63.78;101456.56;5094059;27;49841;-73
2022/08/24 00:17:04;;;;;;;;;3.50;3.50;;;;;23.93;63.91;101453.97;5104923;27;49722;-72
2022/08/24 00:19:30;;;;;;;;;5.50;3.75;;;;;23.77;63.97;101432.91;5101101;27;49923;-72
2022/08/24 00:21:55;;;;;;;;;3.00;3.00;;;;;23.93;64.21;101461.13;5101568;27;49616;-68
2022/08/24 00:24:21;;;;;;;;;5.00;4.75;;;;;23.87;64.23;101448.75;5103710;27;49589;-70
2022/08/24 00:26:47;;;;;;;;;4.50;4.50;;;;;23.81;64.15;101446.19;5105131;27;49549;-68
2022/08/24 00:29:14;;;;;;;;;6.75;5.25;;;;;23.85;64.68;101455.94;5084261;27;50177;-66
2022/08/24 00:31:40;;;;;;;;;5.50;5.50;;;;;23.87;64.17;101453.22;5102379;27;49651;-70
2022/08/24 00:34:05;;;;;;;;;4.75;4.75;;;;;23.74;64.45;101441.00;5105125;27;49631;-66
2022/08/24 00:36:32;;;;;;;;;5.50;4.75;;;;;23.81;64.43;101454.25;5098186;27;50253;-75
2022/08/24 00:38:57;;;;;;;;;2.75;2.75;;;;;23.80;64.76;101459.66;5102150;27;50507;-76
2022/08/24 00:41:23;;;;;;;;;6.50;6.50;;;;;23.72;64.82;101451.78;5099734;27;49735;-67
2022/08/24 00:43:55;;;;;;;;;3.25;3.25;;;;;23.72;64.97;101450.88;5090806;27;49918;-69
2022/08/24 00:46:41;;;;;;;;;3.75;3.75;;;;;23.50;65.21;101427.22;5091025;27;49921;-77
2022/08/24 00:49:24;;;;;;;;;6.00;6.00;;;;;23.68;65.24;101447.41;5101330;27;50505;-68
2022/08/24 00:51:56;;;;;;;;;4.00;4.00;;;;;23.67;65.06;101448.31;5095223;27;49739;-76
2022/08/24 00:54:25;;;;;;;;;6.00;5.00;;;;;23.53;65.09;101428.94;5102615;27;49711;-76
2022/08/24 00:57:01;;;;;;;;;3.25;3.25;;;;;23.57;65.26;101446.72;5103898;27;49602;-70
2022/08/24 00:59:31;;;;;;;;;5.00;3.25;;;;;23.46;65.61;101440.72;5102099;27;50262;-66
2022/08/24 01:02:01;;;;;;;;;3.25;3.25;;;;;23.54;65.88;101449.47;5099775;27;49755;-72
2022/08/24 01:04:34;;;;;;;;;4.50;4.50;;;;;23.44;65.66;101448.78;5101931;27;49459;-75
2022/08/24 01:06:59;;;;;;;;;4.75;3.75;;;;;23.30;65.92;101422.28;5107016;27;49581;-67
2022/08/24 01:09:25;;;;;;;;;4.50;3.25;;;;;23.50;65.89;101461.19;5103756;27;50304;-73
2022/08/24 01:11:50;;;;;;;;;4.00;4.00;;;;;23.27;66.26;101429.53;5103459;27;49958;-78
2022/08/24 01:14:19;;;;;;;;;4.50;3.50;;;;;23.11;66.41;101405.72;5108194;27;49348;-74
2022/08/24 01:19:38;;;;;;;;;6.25;4.00;;;;;23.40;66.74;101455.13;5110228;27;49890;-78
2022/08/24 01:22:14;;;;;;;;;4.75;4.75;;;;;23.37;66.79;101452.53;5103778;27;49905;-68
2022/08/24 01:24:40;;;;;;;;;5.75;4.00;;;;;23.36;66.78;101456.13;5102223;27;49941;-72
2022/08/24 01:27:08;;;;;;;;;6.50;4.75;;;;;23.22;66.54;101431.41;5103977;27;49559;-77
2022/08/24 01:29:35;;;;;;;;;5.00;5.00;;;;;23.32;66.89;101449.94;5111452;27;50110;-72
2022/08/24 01:32:00;;;;;;;;;5.00;3.75;;;;;23.29;67.11;101454.47;5109449;27;49751;-75
2022/08/24 01:34:26;;;;;;;;;4.00;4.00;;;;;23.21;67.21;101449.28;5103436;27;49545;-78
2022/08/24 01:36:55;;;;;;;;;7.75;6.50;;;;;23.18;67.46;101440.44;5094462;27;49700;-78
2022/08/24 01:39:37;;;;;;;;;4.75;4.75;;;;;23.19;67.38;101443.06;5094131;27;50695;-78
2022/08/24 01:42:03;;;;;;;;;3.75;3.75;;;;;23.12;67.12;101436.06;5099775;27;50034;-70
2022/08/24 01:44:32;;;;;;;;;3.25;3.25;;;;;23.10;67.86;101438.78;5107336;27;49800;-78
2022/08/24 01:46:58;;;;;;;;;5.00;4.00;;;;;23.01;67.57;101430.94;5103771;27;49794;-72
2022/08/24 01:49:27;;;;;;;;;7.25;5.50;;;;;23.21;67.41;101456.44;5105952;27;50365;-78
2022/08/24 01:51:53;;;;;;;;;4.00;4.00;;;;;23.20;67.69;101460.03;5081625;28;49811;-75
2022/08/24 01:54:18;;;;;;;;;3.25;3.25;;;;;23.17;67.65;101462.78;5107232;27;49579;-74
2022/08/24 01:56:44;;;;;;;;;4.00;4.00;;;;;23.13;67.73;101461.94;5102244;27;49543;-71
2022/08/24 01:59:11;;;;;;;;;7.25;6.00;;;;;22.94;67.75;101441.78;5093092;27;50821;-77
2022/08/24 02:01:41;;;;;;;;;6.25;5.25;;;;;22.81;67.56;101414.34;5093168;27;50100;-72
2022/08/24 02:04:08;;;;;;;;;4.25;4.25;;;;;22.81;67.96;101419.69;5093499;27;50137;-68
2022/08/24 02:06:34;;;;;;;;;5.25;5.25;;;;;23.02;68.19;101462.16;5093675;27;49845;-76
2022/08/24 02:09:00;;;;;;;;;5.75;5.75;;;;;22.87;68.25;101435.66;5092854;27;50544;-77
2022/08/24 02:11:26;;;;;;;;;3.00;3.00;;;;;22.96;68.26;101453.34;5093214;27;50097;-68
2022/08/24 02:13:51;;;;;;;;;5.25;4.00;;;;;22.63;68.34;101398.63;5093142;27;49812;-70
2022/08/24 02:16:17;;;;;;;;;4.75;4.75;;;;;22.83;68.61;101436.59;5097106;27;49673;-68
2022/08/24 02:18:42;;;;;;;;;5.75;4.25;;;;;22.88;68.71;101452.63;5092880;27;50813;-75
2022/08/24 02:21:09;;;;;;;;;4.00;3.75;;;;;22.87;68.85;101456.19;5093195;27;49922;-77
2022/08/24 02:23:36;;;;;;;;;4.25;4.25;;;;;22.73;68.82;101438.56;5093168;27;49901;-67
2022/08/24 02:26:03;;;;;;;;;6.00;4.00;;;;;22.77;69.09;101456.31;5093445;27;49812;-73
2022/08/24 02:28:28;;;;;;;;;4.00;4.00;;;;;22.40;69.15;101404.41;5092792;27;49849;-78
2022/08/24 02:30:54;;;;;;;;;3.00;3.00;;;;;22.35;69.33;101387.56;5092442;27;49994;-71
2022/08/24 02:33:20;;;;;;;;;4.00;4.00;;;;;22.36;69.53;101392.00;5086333;27;49767;-75
2022/08/24 02:35:46;;;;;;;;;3.50;3.00;;;;;22.72;69.40;101462.69;5093182;27;49682;-67
2022/08/24 02:38:11;;;;;;;;;6.00;5.00;;;;;22.66;69.64;101462.78;5092835;27;49782;-77
2022/08/24 02:40:37;;;;;;;;;4.75;4.50;;;;;22.63;69.88;101461.06;5092807;27;49944;-78
2022/08/24 02:43:02;;;;;;;;;4.50;4.00;;;;;22.29;69.66;101412.59;5092832;27;49677;-78
2022/08/24 02:45:27;;;;;;;;;3.75;3.75;;;;;22.49;70.07;101453.28;5092819;27;49724;-76
2022/08/24 02:47:53;;;;;;;;;4.50;4.50;;;;;22.55;70.31;101460.31;5092278;27;50557;-78
2022/08/24 02:50:19;;;;;;;;;6.00;4.25;;;;;22.54;70.21;101462.09;5092661;27;50006;-77
2022/08/24 02:52:45;;;;;;;;;6.00;5.50;;;;;22.52;70.37;101463.94;5092631;27;49861;-76
2022/08/24 02:55:15;;;;;;;;;4.75;4.25;;;;;22.50;70.36;101463.09;5092926;27;49788;-76
2022/08/24 02:57:41;;;;;;;;;4.00;4.00;;;;;22.35;70.40;101438.38;5109783;27;51345;-78
2022/08/24 03:00:10;;;;;;;;;5.25;5.25;;;;;22.45;70.59;101462.25;5103706;27;49952;-75
2022/08/24 03:02:35;;;;;;;;;7.00;4.50;;;;;22.44;70.17;101463.19;5107094;27;49873;-67
2022/08/24 03:05:02;;;;;;;;;3.75;3.75;;;;;22.42;70.91;101458.78;5104769;27;49816;-77
2022/08/24 03:07:27;;;;;;;;;3.50;3.50;;;;;22.23;70.84;101431.44;5094868;27;49705;-77
2022/08/24 03:09:52;;;;;;;;;5.00;4.50;;;;;22.22;70.74;101419.88;5092442;27;49755;-71
2022/08/24 03:12:18;;;;;;;;;5.00;5.00;;;;;22.10;71.01;101413.81;5095330;27;49887;-77
2022/08/24 03:14:43;;;;;;;;;5.75;5.75;;;;;22.34;71.15;101456.22;5107491;27;49668;-74
2022/08/24 03:17:09;;;;;;;;;6.00;6.00;;;;;22.12;71.40;101420.94;5107640;27;49718;-78
2022/08/24 03:19:34;;;;;;;;;4.00;3.75;;;;;22.21;71.14;101443.97;5100135;27;49671;-76
2022/08/24 03:22:02;;;;;;;;;4.25;4.25;;;;;21.91;70.99;101400.75;5105939;27;49773;-77
2022/08/24 03:24:28;;;;;;;;;8.00;5.00;;;;;22.03;71.56;101422.84;5109234;27;49463;-78
2022/08/24 03:26:54;;;;;;;;;6.00;6.00;;;;;22.22;71.55;101448.41;5107882;27;49464;-71
2022/08/24 03:29:19;;;;;;;;;4.00;4.00;;;;;21.99;71.78;101438.91;5098796;27;49753;-78
2022/08/24 03:31:44;;;;;;;;;4.50;4.50;;;;;22.14;72.06;101442.28;5105813;27;50037;-74
2022/08/24 03:34:13;;;;;;;;;4.50;4.50;;;;;22.14;72.50;101447.66;5103741;27;49404;-76
2022/08/24 03:36:40;;;;;;;;;6.00;5.50;;;;;22.14;72.25;101445.84;5099985;27;50116;-77
2022/08/24 03:39:06;;;;;;;;;5.50;4.00;;;;;22.15;72.07;101452.06;5104947;27;49733;-77
2022/08/24 03:41:31;;;;;;;;;6.00;6.00;;;;;22.14;72.43;101456.53;5103020;27;49382;-77
2022/08/24 03:43:57;;;;;;;;;4.75;4.75;;;;;22.12;72.30;101450.34;5102256;27;50405;-77
2022/08/24 03:46:28;;;;;;;;;9.75;5.75;;;;;21.95;72.41;101417.59;5102226;27;50388;-78
2022/08/24 03:48:58;;;;;;;;;5.00;5.00;;;;;22.09;72.43;101447.69;5105459;27;49384;-78
2022/08/24 03:51:26;;;;;;;;;6.50;4.50;;;;;22.07;72.46;101449.53;5109264;27;49301;-77
2022/08/24 03:53:52;;;;;;;;;6.25;6.25;;;;;22.05;72.73;101440.63;5103711;27;49307;-77
2022/08/24 03:56:18;;;;;;;;;3.25;3.25;;;;;21.68;72.86;101386.84;5102024;27;50573;-78
2022/08/24 03:58:44;;;;;;;;;5.00;5.00;;;;;22.06;72.83;101444.16;5103002;27;49634;-76
2022/08/24 04:01:10;;;;;;;;;4.50;4.50;;;;;22.05;72.59;101442.41;5103243;27;49983;-78
2022/08/24 04:03:40;;;;;;;;;6.00;6.00;;;;;21.95;72.58;101428.31;5097642;27;49727;-78
2022/08/24 04:06:08;;;;;;;;;4.75;4.75;;;;;21.89;72.93;101418.56;5095035;27;49837;-78
2022/08/24 04:08:33;;;;;;;;;5.00;5.00;;;;;22.04;72.94;101435.28;5072196;27;49664;-77
2022/08/24 04:11:00;;;;;;;;;6.50;5.75;;;;;21.78;72.69;101398.25;5091749;27;50165;-76
2022/08/24 04:13:30;;;;;;;;;4.75;4.75;;;;;22.06;72.51;101438.81;5091867;27;49791;-79
2022/08/24 04:15:56;;;;;;;;;5.50;5.00;;;;;22.04;72.66;101443.31;5090892;27;50059;-78
2022/08/24 04:18:22;;;;;;;;;5.25;5.25;;;;;21.99;73.20;101435.34;5091358;27;49625;-74
2022/08/24 04:20:47;;;;;;;;;6.00;6.00;;;;;21.90;72.90;101423.00;5090520;27;57212;-71
2022/08/24 04:23:14;;;;;;;;;7.50;6.25;;;;;22.05;72.65;101453.97;5090862;27;54295;-79
2022/08/24 04:25:46;;;;;;;;;4.00;4.00;;;;;22.04;72.64;101438.84;5091115;27;49773;-78
2022/08/24 04:28:14;;;;;;;;;6.25;5.00;;;;;21.94;72.61;101419.41;5089196;27;49841;-74
2022/08/24 04:30:44;;;;;;;;;6.25;4.50;;;;;21.90;72.82;101414.09;5091198;27;49792;-75
2022/08/24 04:33:11;;;;;;;;;4.00;4.00;;;;;21.99;72.70;101436.22;5089535;27;49760;-77
2022/08/24 04:35:42;;;;;;;;;6.25;6.25;;;;;22.05;72.90;101440.63;5090895;27;50578;-74
2022/08/24 04:38:08;;;;;;;;;5.75;5.75;;;;;22.05;72.64;101427.25;5090131;27;49762;-77
2022/08/24 04:40:34;;;;;;;;;2.00;2.00;;;;;22.05;72.89;101435.28;5092827;27;49992;-72
2022/08/24 04:43:00;;;;;;;;;6.00;6.00;;;;;22.06;72.83;101428.13;5092585;27;49659;-79
2022/08/24 04:45:27;;;;;;;;;4.25;4.25;;;;;21.68;72.48;101393.06;5094170;27;50288;-70
2022/08/24 04:47:52;;;;;;;;;6.00;5.00;;;;;22.05;72.82;101437.94;5094581;27;49894;-81
2022/08/24 04:50:17;;;;;;;;;6.25;5.00;;;;;21.92;72.97;101421.22;5094478;27;50056;-75
2022/08/24 04:52:43;;;;;;;;;8.00;5.25;;;;;22.02;72.96;101438.00;5094593;27;50038;-72
2022/08/24 04:55:08;;;;;;;;;5.75;5.50;;;;;21.97;72.90;101440.72;5094232;27;50665;-69
2022/08/24 04:57:34;;;;;;;;;5.50;5.50;;;;;21.88;72.65;101416.81;5094256;27;49693;-71
2022/08/24 04:59:59;;;;;;;;;7.00;5.25;;;;;21.65;72.63;101390.44;5094066;27;49765;-77
2022/08/24 05:02:25;;;;;;;;;6.25;6.25;;;;;21.97;72.89;101439.84;5094450;27;49783;-73
2022/08/24 05:04:50;;;;;;;;;6.50;5.50;;;;;21.94;73.13;101440.78;5094063;27;50496;-77
2022/08/24 05:07:17;;;;;;;;;5.75;5.75;;;;;21.81;73.42;101416.91;5094483;27;50072;-71
2022/08/24 05:09:43;;;;;;;;;10.25;7.50;;;;;21.92;73.28;101437.25;5094223;27;49842;-76
2022/08/24 05:12:09;;;;;;;;;7.00;7.00;;;;;21.74;73.44;101408.13;5094216;27;49750;-78
2022/08/24 05:14:34;;;;;;;;;7.25;7.25;;;;;21.95;73.21;101442.56;5092852;27;49723;-67
2022/08/24 05:16:59;;;;;;;;;7.00;6.00;;;;;21.96;73.61;101444.31;5093960;27;49888;-78
2022/08/24 05:19:25;;;;;;;;;6.00;6.00;;;;;21.82;73.16;101424.06;5062013;28;53950;-75
2022/08/24 05:21:50;;;;;;;;;8.25;8.00;;;;;21.95;73.53;101445.22;5094172;27;49901;-78
2022/08/24 05:24:16;;;;;;;;;7.50;6.50;;;;;21.95;73.55;101450.56;5075326;27;49711;-79
2022/08/24 05:26:42;;;;;;;;;10.75;9.25;;;;;21.62;73.74;101397.63;5094115;27;49659;-78
2022/08/24 05:29:07;;;;;;;;;11.50;9.50;;;;;21.83;73.56;101436.50;5093861;27;49836;-75
2022/08/24 05:31:33;;;;;;;;;13.00;9.00;;;;;21.98;73.47;101452.31;5093661;27;49991;-75
2022/08/24 05:34:02;;;;;;;;;8.00;8.00;;;;;21.87;73.56;101423.06;5093645;27;50077;-78
2022/08/24 05:36:30;;;;;;;;;10.25;9.00;;;;;22.01;73.45;101444.25;5093788;27;49736;-77
2022/08/24 05:38:59;;;;;;;;;8.00;6.50;;;;;22.04;73.31;101446.00;5093909;27;49884;-73
2022/08/24 05:41:25;;;;;;;;;9.00;9.00;;;;;22.01;73.38;101441.59;5093857;27;49835;-70
2022/08/24 05:43:51;;;;;;;;;7.50;6.50;;;;;21.95;72.98;101422.94;5093453;27;49708;-78
2022/08/24 05:46:16;;;;;;;;;8.50;8.25;;;;;22.12;73.03;101449.47;5093737;27;49632;-78
2022/08/24 05:48:42;;;;;;;;;8.75;7.00;;;;;21.84;73.04;101403.53;5093429;27;49975;-77
2022/08/24 05:51:09;;;;;;;;;9.75;8.75;;;;;21.89;73.13;101407.00;5093261;27;49956;-78
2022/08/24 05:53:35;;;;;;;;;8.00;8.00;;;;;22.15;73.07;101447.63;5092973;27;50426;-69
2022/08/24 05:56:05;;;;;;;;;9.75;9.00;;;;;22.15;73.19;101450.28;5092780;27;49911;-77
2022/08/24 05:58:30;;;;;;;;;10.75;10.25;;;;;22.12;73.19;101446.78;5096660;27;49889;-70
2022/08/24 06:00:55;;;;;;;;;8.25;8.25;;;;;21.89;73.17;101407.88;5097608;27;49706;-79
2022/08/24 06:03:21;;;;;;;;;9.75;9.00;;;;;21.83;73.21;101405.31;5093155;27;50063;-75
2022/08/24 06:05:47;;;;;;;;;7.25;7.25;;;;;22.18;72.94;101458.25;5093225;27;49911;-71
2022/08/24 06:08:12;;;;;;;;;11.00;9.50;;;;;22.19;73.02;101456.47;5093407;27;49894;-82
2022/08/24 06:10:43;;;;;;;;;6.75;6.75;;;;;22.21;72.52;101449.31;5093299;27;50030;-79
2022/08/24 06:13:10;;;;;;;;;11.00;9.25;;;;;22.30;72.61;101459.88;5092985;27;49928;-75
2022/08/24 06:15:36;;;;;;;;;9.50;7.50;;;;;22.35;72.15;101460.66;5092774;27;50022;-76
2022/08/24 06:18:03;;;;;;;;;8.75;6.75;;;;;22.39;72.22;101458.81;5093255;27;49791;-82
2022/08/24 06:20:29;;;;;;;;;6.75;6.75;;;;;22.39;72.35;101461.47;5093374;27;49809;-79
2022/08/24 06:22:55;;;;;;;;;8.50;8.50;;;;;22.27;72.06;101442.06;5093022;27;50192;-72
2022/08/24 06:28:07;;;;;;;;;11.50;8.50;;;;;22.43;71.74;101458.75;5092903;27;50099;-80
2022/08/24 06:30:33;;;;;;;;;7.50;7.00;;;;;21.98;71.30;101383.69;5092876;27;49958;-81
2022/08/24 06:33:00;;;;;;;;;8.25;6.25;;;;;22.44;71.23;101459.63;5092755;27;50575;-81
2022/08/24 06:35:25;;;;;;;;;9.00;6.25;;;;;22.48;71.46;101472.91;5092673;27;49774;-69
2022/08/24 06:37:51;;;;;;;;;5.75;5.00;;;;;22.22;71.41;101432.38;5095511;27;49695;-79
2022/08/24 06:40:19;;;;;;;;;10.00;8.00;;;;;22.48;71.59;101472.03;5110069;27;49514;-77
2022/08/24 06:42:44;;;;;;;;;7.00;7.00;;;;;22.51;71.40;101472.00;5109773;27;49978;-76
2022/08/24 06:45:10;;;;;;;;;8.75;8.75;;;;;22.44;71.39;101452.47;5103157;27;49792;-72
2022/08/24 06:47:35;;;;;;;;;8.50;8.00;;;;;22.55;71.33;101457.63;5098751;27;49593;-75
2022/08/24 06:50:01;;;;;;;;;10.00;9.00;;;;;22.59;71.24;101469.19;5104225;27;52185;-78
2022/08/24 06:52:26;;;;;;;;;10.50;8.50;;;;;22.54;71.02;101461.22;5096492;27;54379;-80
2022/08/24 06:54:52;;;;;;;;;12.75;9.75;;;;;22.47;71.46;101462.22;5103095;27;49966;-77
2022/08/24 06:57:17;;;;;;;;;9.00;7.25;;;;;22.27;71.11;101420.66;5101489;27;49374;-72
2022/08/24 06:59:43;;;;;;;;;9.00;8.00;;;;;22.56;71.00;101462.97;5090319;27;49640;-75
2022/08/24 07:02:09;;;;;;;;;9.50;8.00;;;;;22.22;70.85;101411.84;5092480;27;49868;-73
2022/08/24 07:04:34;;;;;;;;;7.50;7.50;;;;;22.71;70.49;101467.16;5099575;27;49739;-72
2022/08/24 07:06:59;;;;;;;;;7.25;6.25;;;;;22.55;69.35;101422.84;5105329;27;49845;-75
2022/08/24 07:09:26;;;;;;;;;7.50;6.25;;;;;22.48;69.19;101402.47;5086754;27;50446;-72
2022/08/24 07:11:51;;;;;;;;;7.00;7.00;;;;;22.90;69.33;101469.53;5091180;27;49996;-75
2022/08/24 07:14:21;;;;;;;;;6.00;6.00;;;;;22.89;69.39;101468.66;5103168;27;49925;-68
2022/08/24 07:16:46;;;;;;;;;8.25;8.25;;;;;22.91;69.26;101468.63;5092306;27;49709;-76
2022/08/24 07:19:14;;;;;;;;;7.75;6.75;;;;;22.87;69.46;101465.09;5091701;27;49634;-69
2022/08/24 07:21:41;;;;;;;;;8.25;5.25;;;;;22.91;69.05;101461.47;5091290;27;50509;-76
2022/08/24 07:24:06;;;;;;;;;8.25;5.75;;;;;23.02;68.63;101467.50;5091469;27;49889;-72
2022/08/24 07:26:32;;;;;;;;;8.50;8.00;;;;;23.11;68.55;101461.97;5091332;27;49709;-69
2022/08/24 07:29:04;;;;;;;;;8.50;6.25;;;;;22.99;68.77;101443.47;5091572;27;49889;-76
2022/08/24 07:31:30;;;;;;;;;7.75;7.00;;;;;23.13;68.37;101454.78;5068083;28;51955;-75
2022/08/24 07:33:56;;;;;;;;;12.75;9.00;;;;;23.25;68.66;101468.84;5088331;27;49711;-76
2022/08/24 07:36:21;;;;;;;;;8.25;6.75;;;;;23.35;68.05;101468.59;5090760;27;50194;-76
2022/08/24 07:38:47;;;;;;;;;11.00;9.25;;;;;23.37;67.62;101469.47;5089646;27;50262;-74
2022/08/24 07:41:15;;;;;;;;;9.00;8.00;;;;;23.24;67.29;101427.78;5090723;27;60644;-77
2022/08/24 07:43:40;;;;;;;;;9.25;9.25;;;;;23.48;67.19;101465.69;5090362;27;49851;-72
2022/08/24 07:46:06;;;;;;;;;9.50;9.50;;;;;23.47;66.91;101470.16;5089778;27;49573;-74
2022/08/24 07:48:32;;;;;;;;;11.50;9.25;;;;;23.51;66.98;101477.22;5072732;27;49757;-71
2022/08/24 07:51:05;;;;;;;;;12.00;9.25;;;;;23.56;66.77;101480.69;5090823;27;49836;-75
2022/08/24 07:53:31;;;;;;;;;10.25;8.25;;;;;23.62;66.58;101477.91;5090036;27;49866;-73
2022/08/24 07:55:56;;;;;;;;;8.50;7.75;;;;;23.72;66.16;101478.56;5090507;27;58844;-70
2022/08/24 07:58:23;;;;;;;;;8.50;7.00;;;;;23.69;65.67;101447.38;5090861;27;49604;-72
2022/08/24 08:00:48;;;;;;;;;10.00;7.25;;;;;23.86;65.99;101470.25;5090224;27;49911;-72
2022/08/24 08:03:14;;;;;;;;;8.25;8.25;;;;;23.92;64.91;101473.63;5090631;27;50064;-75
2022/08/24 08:05:39;;;;;;;;;10.50;10.00;;;;;;;;5091122;27;50053;-75
2022/08/24 08:08:05;;;;;;;;;9.25;7.25;;;;;24.10;65.23;101487.53;5090151;27;50144;-69
2022/08/24 08:10:34;;;;;;;;;10.50;8.00;;;;;24.12;64.86;101477.66;5090751;27;50398;-72
2022/08/24 08:13:00;;;;;;;;;13.50;11.75;;;;;24.06;64.15;101476.03;5084218;27;50011;-73
2022/08/24 08:15:25;;;;;;;;;11.00;9.00;;;;;24.15;63.99;101465.06;5089971;27;49677;-73
2022/08/24 08:17:52;;;;;;;;;8.25;8.25;;;;;24.39;63.26;101486.88;5072539;27;50069;-73
2022/08/24 08:20:17;;;;;;;;;8.25;7.50;;;;;24.49;62.98;101488.41;5089871;27;49963;-70
2022/08/24 08:25:27;;;;;;;;;12.50;9.75;;;;;24.82;62.59;101500.09;5090485;27;49754;-74
2022/08/24 08:27:53;;;;;;;;;14.50;11.00;;;;;24.97;61.93;101498.78;5090523;27;49856;-75
2022/08/24 08:30:18;;;;;;;;;12.00;10.75;;;;;25.16;61.82;101491.13;5090424;27;49895;-72
2022/08/24 08:32:44;;;;;;;;;9.25;8.25;;;;;25.30;60.82;101487.13;5090301;27;49830;-72
2022/08/24 08:35:09;;;;;;;;;11.00;7.75;;;;;25.15;60.80;101449.06;5090539;27;49849;-68
2022/08/24 08:37:35;;;;;;;;;8.75;8.75;;;;;25.36;59.68;101491.44;5090568;27;50001;-72
2022/08/24 08:40:01;;;;;;;;;8.00;8.00;;;;;25.26;58.88;101477.38;5090396;27;51390;-75
2022/08/24 08:42:39;;;;;;;;;7.50;7.25;;;;;25.45;58.86;101493.88;5089959;27;49805;-74
2022/08/24 08:45:14;;;;;;;;;7.25;7.25;;;;;25.48;57.97;101487.50;5083108;27;49775;-71
2022/08/24 08:47:58;;;;;;;;;8.50;7.00;;;;;25.54;58.51;101490.03;5089657;27;49890;-75
2022/08/24 08:50:42;;;;;;;;;8.50;6.75;;;;;25.60;58.70;101479.97;5089915;27;49853;-74
2022/08/24 08:53:18;;;;;;;;;11.00;8.00;;;;;25.54;57.97;101482.84;5089797;27;49809;-74
2022/08/24 08:55:51;;;;;;;;;8.50;8.50;;;;;25.37;57.80;101455.56;5090115;27;49783;-73
2022/08/24 08:58:43;;;;;;;;;8.00;6.25;;;;;25.53;58.11;101488.25;5084601;27;49982;-74
2022/08/24 09:01:18;;;;;;;;;10.00;9.00;;;;;25.44;57.51;101461.66;5089623;27;49983;-74
2022/08/24 09:03:58;;;;;;;;;9.00;7.25;;;;;25.52;57.82;101482.00;5088269;27;49942;-75
2022/08/24 09:06:42;;;;;;;;;10.00;8.50;;;;;25.51;57.26;101476.69;5089770;27;49901;-68
2022/08/24 09:09:26;;;;;;;;;6.25;6.25;;;;;25.56;57.58;101485.47;5090030;27;49818;-71
2022/08/24 09:12:04;;;;;;;;;7.75;7.75;;;;;25.61;57.07;101480.84;5089707;27;50876;-74
2022/08/24 09:14:55;;;;;;;;;8.25;8.25;;;;;25.67;57.58;101475.28;5089503;27;49766;-72
2022/08/24 09:17:38;;;;;;;;;7.75;7.75;;;;;25.76;56.85;101474.16;5089757;27;50118;-73
2022/08/24 09:20:30;;;;;;;;;9.00;9.00;;;;;25.80;56.47;101470.47;5087566;27;49770;-69
2022/08/24 09:23:19;;;;;;;;;8.75;8.25;;;;;25.55;55.07;101430.81;5089412;27;49758;-69
2022/08/24 09:26:17;;;;;;;;;8.00;8.00;;;;;25.92;55.91;101470.94;5069065;27;49869;-69
2022/08/24 09:28:48;;;;;;;;;9.25;9.00;;;;;26.04;55.69;101468.78;5093226;27;49992;-69
2022/08/24 09:31:44;;;;;;;;;4.75;4.75;;;;;26.06;54.52;101470.50;5074629;27;49775;-72
2022/08/24 09:34:24;;;;;;;;;5.75;5.75;;;;;26.17;53.76;101476.44;5093101;27;49651;-70
2022/08/24 09:36:52;;;;;;;;;3.00;3.00;;;;;26.27;53.99;101476.13;5093303;27;49909;-68
2022/08/24 09:39:31;;;;;;;;;4.50;2.75;;;;;26.30;52.20;101470.63;5092886;27;49923;-69
2022/08/24 09:41:59;;;;;;;;;4.50;4.00;;;;;26.35;52.30;101474.94;5093066;27;49977;-69
2022/08/24 09:44:57;;;;;;;;;4.75;4.75;;;;;26.41;53.07;101477.44;5092725;27;51174;-68
2022/08/24 09:48:07;;;;;;;;;3.75;2.00;;;;;26.41;51.11;101460.41;5046643;27;49746;-68
2022/08/24 09:50:45;;;;;;;;;3.75;3.75;;;;;26.55;51.63;101471.59;5048798;28;49710;-69
2022/08/24 09:53:41;;;;;;;;;6.25;2.25;;;;;26.56;50.37;101472.50;5049028;28;50230;-72
2022/08/24 09:56:23;;;;;;;;;2.75;2.75;;;;;26.63;51.01;101469.50;5065602;27;49804;-68
2022/08/24 09:59:00;;;;;;;;;1.25;1.25;;;;;26.47;50.66;101431.47;5092776;27;50014;-73
2022/08/24 10:02:08;;;;;;;;;1.00;1.00;;;;;26.68;48.55;101464.84;5092542;27;49990;-70
2022/08/24 10:04:52;;;;;;;;;0.75;0.75;;;;;26.75;48.51;101460.16;5092264;27;49699;-74
2022/08/24 10:07:25;;;;;;;;;1.50;1.50;;;;;26.84;48.29;101465.22;5092002;27;50446;-72
2022/08/24 10:10:08;;;;;;;;;1.25;1.25;;;;;26.89;48.78;101459.63;5092095;27;49882;-75
2022/08/24 10:12:48;;;;;;;;;2.00;2.00;;;;;26.85;48.70;101449.91;5092385;27;49762;-68
2022/08/24 10:15:28;;;;;;;;;1.75;1.75;;;;;26.83;48.48;101449.97;5092591;27;49983;-74
2022/08/24 10:18:02;;;;;;;;;2.00;2.00;;;;;26.94;48.72;101457.66;5092181;27;50576;-74
2022/08/24 10:20:55;;;;;;;;;1.00;1.00;;;;;27.00;47.43;101455.63;5092362;27;49784;-74
2022/08/24 10:23:58;;;;;;;;;2.25;0.50;;;;;27.07;46.12;101443.72;5092102;27;49979;-71
2022/08/24 10:26:49;;;;;;;;;1.25;1.25;;;;;27.18;45.95;101442.44;5092105;27;50007;-68
2022/08/24 10:29:43;;;;;;;;;1.75;1.75;;;;;27.27;46.01;101432.19;5092023;27;51046;-70
2022/08/24 10:32:24;;;;;;;;;1.00;1.00;;;;;27.39;46.26;101426.31;5087658;27;49789;-71
2022/08/24 10:35:03;;;;;;;;;1.75;1.75;;;;;27.44;46.77;101431.53;5092040;27;49812;-72
2022/08/24 10:39:39;;;;;;;;;2.00;2.00;;;;;27.43;45.18;101428.91;5092330;27;50070;-71
2022/08/24 10:40:58;;;;;;;;;1.50;1.00;;;;;27.46;44.89;101432.34;5091543;27;50163;-74
2022/08/24 10:44:03;;;;;;;;;1.00;1.00;;;;;27.54;45.32;101437.47;5091773;27;49755;-71
2022/08/24 10:46:35;;;;;;;;;3.75;1.00;;;;;27.55;46.54;101432.00;5075154;27;50148;-70
2022/08/24 10:49:25;;;;;;;;;2.00;2.00;;;;;27.54;45.95;101426.66;5092214;27;49700;-74
2022/08/24 10:52:24;;;;;;;;;1.50;1.50;;;;;27.54;46.37;101427.56;5071785;27;51323;-70
2022/08/24 10:54:49;;;;;;;;;1.25;1.25;;;;;27.50;46.56;101420.50;5091647;27;49881;-70
2022/08/24 10:57:22;;;;;;;;;1.75;1.25;;;;;27.51;46.57;101416.91;5073331;27;49862;-68
2022/08/24 11:00:10;;;;;;;;;1.00;1.00;;;;;27.53;46.64;101424.91;5091860;27;49908;-68
2022/08/24 11:02:39;;;;;;;;;1.50;1.00;;;;;27.53;45.97;101422.22;5091892;27;49837;-67
2022/08/24 11:05:09;;;;;;;;;1.00;1.00;;;;;27.46;45.65;101402.69;5091777;27;50010;-68
2022/08/24 11:07:35;;;;;;;;;2.00;2.00;;;;;27.61;45.24;101425.50;5091623;27;49829;-70
2022/08/24 11:10:05;;;;;;;;;2.50;1.25;;;;;27.69;44.66;101423.38;5091759;27;49803;-70
2022/08/24 11:12:42;;;;;;;;;1.00;1.00;;;;;27.71;43.85;101405.34;5091129;27;50451;-72
2022/08/24 11:15:17;;;;;;;;;3.50;2.50;;;;;27.87;43.84;101410.97;5091181;27;49804;-71
2022/08/24 11:18:01;;;;;;;;;1.75;1.75;;;;;27.99;44.49;101412.28;5091286;27;50089;-66
2022/08/24 11:20:39;;;;;;;;;2.50;2.00;;;;;28.04;43.69;101416.56;5091615;27;49793;-71
2022/08/24 11:23:23;;;;;;;;;1.00;1.00;;;;;27.99;43.97;101380.81;5090881;27;50017;-71
2022/08/24 11:26:03;;;;;;;;;1.00;1.00;;;;;28.16;43.75;101404.38;5091145;27;49952;-70
2022/08/24 11:28:56;;;;;;;;;2.75;1.00;;;;;28.23;43.25;101400.47;5091241;27;50018;-72
2022/08/24 11:31:40;;;;;;;;;1.50;1.50;;;;;28.30;43.11;101380.41;5086790;27;49819;-67
2022/08/24 11:34:15;;;;;;;;;3.25;2.75;;;;;28.43;43.74;101391.56;5090513;27;49923;-71
2022/08/24 11:36:41;;;;;;;;;1.75;1.75;;;;;28.42;42.10;101370.91;5091075;27;49795;-67
2022/08/24 11:39:20;;;;;;;;;1.75;1.75;;;;;28.57;42.98;101378.34;5091235;27;49788;-69
2022/08/24 11:42:04;;;;;;;;;2.75;1.25;;;;;28.62;42.74;101383.50;5088416;27;50048;-68
2022/08/24 11:44:38;;;;;;;;;1.75;1.75;;;;;28.66;42.94;101380.63;5087330;27;50219;-65
2022/08/24 11:47:18;;;;;;;;;1.25;1.25;;;;;28.59;43.25;101365.63;5090294;27;50066;-67